Time,TemperatureF,DewpointF,PressureIn,WindDirection,WindDirectionDegrees,WindSpeedMPH,WindSpeedGustMPH,Humidity,HourlyPrecipIn,Conditions,Clouds,dailyrainin,SoftwareType,DateUTC
2013-04-12 00:03:00,36.3,30.1,28.64,North,0,1.1,0.0,78,0.00,CLR,,0.00,WeatherDisplay:10.37,2013-04-12 05:03:00,
2013-04-12 00:08:00,36.0,29.8,28.64,NW,315,1.1,0.0,78,0.00,CLR,,0.00,WeatherDisplay:10.37,2013-04-12 05:08:00,
2013-04-12 00:13:00,36.0,30.1,28.64,West,270,1.1,0.0,79,0.00,CLR,,0.00,WeatherDisplay:10.37,2013-04-12 05:13:00,
2013-04-12 00:18:00,35.8,30.2,28.64,North,0,1.1,0.0,80,0.00,CLR,,0.00,WeatherDisplay:10.37,2013-04-12 05:18:00,
2013-04-12 00:23:00,35.8,30.2,28.64,NE,45,1.1,0.0,80,0.00,CLR,,0.00,WeatherDisplay:10.37,2013-04-12 05:23:00,
2013-04-12 00:29:00,35.6,30.0,28.64,SE,135,1.1,0.0,80,0.00,CLR,,0.00,WeatherDisplay:10.37,2013-04-12 05:29:00,
2013-04-12 00:34:00,35.4,30.2,28.64,West,270,1.1,0.0,81,0.00,CLR,,0.00,WeatherDisplay:10.37,2013-04-12 05:34:00,
2013-04-12 00:39:00,35.2,30.0,28.64,SE,135,1.1,0.0,81,0.00,CLR,,0.00,WeatherDisplay:10.37,2013-04-12 05:39:00,
2013-04-12 00:44:00,35.2,30.0,28.65,West,270,1.1,0.0,81,0.00,CLR,,0.00,WeatherDisplay:10.37,2013-04-12 05:44:00,
2013-04-12 00:49:00,35.2,30.3,28.65,SE,135,1.1,0.0,82,0.00,CLR,,0.00,WeatherDisplay:10.37,2013-04-12 05:49:00,
2013-04-12 00:54:00,35.2,30.3,28.65,West,270,1.1,0.0,82,0.00,CLR,,0.00,WeatherDisplay:10.37,2013-04-12 05:54:00,
2013-04-12 00:59:00,35.1,30.1,28.65,SE,135,1.1,0.0,82,0.00,CLR,,0.00,WeatherDisplay:10.37,2013-04-12 05:59:00,
2013-04-12 01:04:00,35.1,30.1,28.65,SE,135,1.1,0.0,82,0.00,CLR,,0.00,WeatherDisplay:10.37,2013-04-12 06:04:00,
2013-04-12 01:10:00,35.1,30.1,28.65,North,0,1.1,0.0,82,0.00,CLR,,0.00,WeatherDisplay:10.37,2013-04-12 06:10:00,
2013-04-12 01:15:00,35.1,30.1,28.65,SE,135,1.1,0.0,82,0.00,CLR,,0.00,WeatherDisplay:10.37,2013-04-12 06:15:00,
2013-04-12 01:20:00,35.1,30.1,28.65,West,270,1.1,0.0,82,0.00,CLR,,0.00,WeatherDisplay:10.37,2013-04-12 06:20:00,
2013-04-12 01:25:00,35.1,30.1,28.65,SE,135,1.1,0.0,82,0.00,CLR,,0.00,WeatherDisplay:10.37,2013-04-12 06:25:00,
2013-04-12 01:30:00,35.1,30.1,28.65,NE,45,1.1,0.0,82,0.00,CLR,,0.00,WeatherDisplay:10.37,2013-04-12 06:30:00,
2013-04-12 01:35:00,35.1,30.1,28.65,NE,45,1.1,0.0,82,0.00,CLR,,0.00,WeatherDisplay:10.37,2013-04-12 06:35:00,
2013-04-12 01:40:00,34.9,29.9,28.65,SE,135,1.1,0.0,82,0.00,CLR,,0.00,WeatherDisplay:10.37,2013-04-12 06:40:00,
2013-04-12 01:45:00,34.9,29.9,28.65,NW,315,4.6,0.0,82,0.00,CLR,,0.00,WeatherDisplay:10.37,2013-04-12 06:45:00,
2013-04-12 01:51:00,35.1,30.1,28.65,NW,315,3.5,0.0,82,0.00,CLR,,0.00,WeatherDisplay:10.37,2013-04-12 06:51:00,
2013-04-12 01:56:00,34.9,29.9,28.65,NW,315,1.1,0.0,82,0.00,CLR,,0.00,WeatherDisplay:10.37,2013-04-12 06:56:00,
2013-04-12 02:01:00,34.7,29.8,28.65,NW,315,2.3,0.0,82,0.00,CLR,,0.00,WeatherDisplay:10.37,2013-04-12 07:01:00,
2013-04-12 02:06:00,34.7,30.1,28.65,SE,135,1.1,0.0,83,0.00,CLR,,0.00,WeatherDisplay:10.37,2013-04-12 07:06:00,
2013-04-12 02:11:00,34.7,30.1,28.64,NW,315,1.1,0.0,83,0.00,CLR,,0.00,WeatherDisplay:10.37,2013-04-12 07:11:00,
2013-04-12 02:17:00,34.7,30.1,28.65,NE,45,1.1,0.0,83,0.00,CLR,,0.00,WeatherDisplay:10.37,2013-04-12 07:17:00,
2013-04-12 02:22:00,34.7,30.1,28.64,NE,45,1.1,0.0,83,0.00,CLR,,0.00,WeatherDisplay:10.37,2013-04-12 07:22:00,
2013-04-12 02:27:00,34.5,29.9,28.64,North,0,1.1,0.0,83,0.00,CLR,,0.00,WeatherDisplay:10.37,2013-04-12 07:27:00,
2013-04-12 02:32:00,34.5,29.9,28.65,SE,135,1.1,0.0,83,0.00,CLR,,0.00,WeatherDisplay:10.37,2013-04-12 07:32:00,
2013-04-12 02:37:00,34.3,29.7,28.64,NE,45,1.1,0.0,83,0.00,CLR,,0.00,WeatherDisplay:10.37,2013-04-12 07:37:00,
2013-04-12 02:42:00,34.3,30.0,28.64,North,0,1.1,0.0,84,0.00,CLR,,0.00,WeatherDisplay:10.37,2013-04-12 07:42:00,
2013-04-12 02:48:00,34.3,30.0,28.64,SE,135,2.3,0.0,84,0.00,CLR,,0.00,WeatherDisplay:10.37,2013-04-12 07:48:00,
2013-04-12 02:53:00,34.3,30.0,28.64,West,270,1.1,0.0,84,0.00,CLR,,0.00,WeatherDisplay:10.37,2013-04-12 07:53:00,
2013-04-12 02:58:00,34.3,30.0,28.64,NNE,22,1.6,0.0,84,0.00,CLR,,0.00,WeatherDisplay:10.37,2013-04-12 07:58:00,
2013-04-12 03:03:00,34.3,30.0,28.65,NW,315,1.1,0.0,84,0.00,CLR,,0.00,WeatherDisplay:10.37,2013-04-12 08:03:00,
2013-04-12 03:08:00,34.2,29.8,28.65,NE,45,1.6,0.0,84,0.00,CLR,,0.00,WeatherDisplay:10.37,2013-04-12 08:08:00,
2013-04-12 03:13:00,34.2,29.8,28.65,SE,135,3.5,0.0,84,0.00,CLR,,0.00,WeatherDisplay:10.37,2013-04-12 08:13:00,
2013-04-12 03:18:00,34.2,30.1,28.65,SE,135,1.1,0.0,85,0.00,CLR,,0.00,WeatherDisplay:10.37,2013-04-12 08:18:00,
2013-04-12 03:23:00,34.2,30.1,28.65,North,0,1.1,0.0,85,0.00,CLR,,0.00,WeatherDisplay:10.37,2013-04-12 08:23:00,
2013-04-12 03:35:00,34.2,30.1,28.65,North,0,1.1,0.0,85,0.00,CLR,,0.00,WeatherDisplay:10.37,2013-04-12 08:35:00,
2013-04-12 03:40:00,34.0,29.9,28.66,NW,315,1.1,0.0,85,0.00,CLR,,0.00,WeatherDisplay:10.37,2013-04-12 08:40:00,
2013-04-12 03:45:00,34.0,29.9,28.66,West,270,1.1,0.0,85,0.00,CLR,,0.00,WeatherDisplay:10.37,2013-04-12 08:45:00,
2013-04-12 03:51:00,34.0,29.9,28.66,NE,45,1.1,0.0,85,0.00,CLR,,0.00,WeatherDisplay:10.37,2013-04-12 08:51:00,
2013-04-12 03:56:00,34.0,29.9,28.67,West,270,1.1,0.0,85,0.00,CLR,,0.00,WeatherDisplay:10.37,2013-04-12 08:56:00,
2013-04-12 04:01:00,34.0,29.9,28.67,NE,45,1.1,0.0,85,0.00,CLR,,0.00,WeatherDisplay:10.37,2013-04-12 09:01:00,
2013-04-12 04:06:00,34.0,29.9,28.67,NE,45,1.1,0.0,85,0.00,CLR,,0.00,WeatherDisplay:10.37,2013-04-12 09:06:00,
2013-04-12 04:12:00,34.0,29.9,28.67,SW,225,1.1,0.0,85,0.00,CLR,,0.00,WeatherDisplay:10.37,2013-04-12 09:12:00,
2013-04-12 04:17:00,33.8,29.8,28.67,NW,315,1.1,0.0,85,0.00,CLR,,0.00,WeatherDisplay:10.37,2013-04-12 09:17:00,
2013-04-12 04:22:00,33.8,29.8,28.67,South,180,1.1,0.0,85,0.00,CLR,,0.00,WeatherDisplay:10.37,2013-04-12 09:22:00,
2013-04-12 04:28:00,33.6,29.6,28.67,NW,315,1.1,0.0,85,0.00,CLR,,0.00,WeatherDisplay:10.37,2013-04-12 09:28:00,
2013-04-12 04:33:00,33.4,29.4,28.67,SW,225,1.1,0.0,85,0.00,CLR,,0.00,WeatherDisplay:10.37,2013-04-12 09:33:00,
2013-04-12 04:38:00,33.4,29.7,28.67,SE,135,1.1,0.0,86,0.00,CLR,,0.00,WeatherDisplay:10.37,2013-04-12 09:38:00,
2013-04-12 04:43:00,33.4,29.7,28.67,SE,135,1.1,0.0,86,0.00,CLR,,0.00,WeatherDisplay:10.37,2013-04-12 09:43:00,
2013-04-12 04:48:00,33.4,29.7,28.68,SE,135,1.1,0.0,86,0.00,CLR,,0.00,WeatherDisplay:10.37,2013-04-12 09:48:00,
2013-04-12 04:53:00,33.4,29.7,28.68,SE,135,1.1,0.0,86,0.00,CLR,,0.00,WeatherDisplay:10.37,2013-04-12 09:53:00,
2013-04-12 04:59:00,33.4,29.7,28.68,NNE,22,1.1,0.0,86,0.00,CLR,,0.00,WeatherDisplay:10.37,2013-04-12 09:59:00,
2013-04-12 05:04:00,33.3,29.5,28.68,NE,45,1.1,0.0,86,0.00,CLR,,0.00,WeatherDisplay:10.37,2013-04-12 10:04:00,
2013-04-12 05:09:00,33.3,29.5,28.68,NE,45,1.1,0.0,86,0.00,CLR,,0.00,WeatherDisplay:10.37,2013-04-12 10:09:00,
2013-04-12 05:14:00,33.3,29.5,28.68,SE,135,1.1,0.0,86,0.00,CLR,,0.00,WeatherDisplay:10.37,2013-04-12 10:14:00,
2013-04-12 05:19:00,33.3,29.5,28.68,SE,135,1.1,0.0,86,0.00,CLR,,0.00,WeatherDisplay:10.37,2013-04-12 10:19:00,
2013-04-12 05:25:00,33.3,29.8,28.68,SE,135,3.5,0.0,87,0.00,CLR,,0.00,WeatherDisplay:10.37,2013-04-12 10:25:00,
2013-04-12 05:30:00,33.3,29.5,28.68,West,270,1.1,0.0,86,0.00,CLR,,0.00,WeatherDisplay:10.37,2013-04-12 10:30:00,
2013-04-12 05:35:00,33.3,29.8,28.69,South,180,1.1,0.0,87,0.00,CLR,,0.00,WeatherDisplay:10.37,2013-04-12 10:35:00,
2013-04-12 05:40:00,33.3,29.5,28.69,SE,135,1.1,0.0,86,0.00,CLR,,0.00,WeatherDisplay:10.37,2013-04-12 10:40:00,
2013-04-12 05:45:00,33.3,29.5,28.69,NW,315,1.1,0.0,86,0.00,CLR,,0.00,WeatherDisplay:10.37,2013-04-12 10:45:00,
2013-04-12 05:50:00,33.3,29.5,28.69,NW,315,1.1,0.0,86,0.00,CLR,,0.00,WeatherDisplay:10.37,2013-04-12 10:50:00,
2013-04-12 05:55:00,33.3,29.5,28.69,South,180,1.1,0.0,86,0.00,CLR,,0.00,WeatherDisplay:10.37,2013-04-12 10:55:00,
2013-04-12 06:00:00,33.3,29.5,28.69,NW,309,0.0,2.0,86,0.00,CLR,,0.00,WeatherDisplay:10.37,2013-04-12 11:00:00,
2013-04-12 06:05:00,33.3,29.5,28.69,NNW,335,0.0,2.0,86,0.00,CLR,,0.00,WeatherDisplay:10.37,2013-04-12 11:05:00,
2013-04-12 06:10:00,33.1,29.3,28.69,WNW,297,0.0,3.0,86,0.00,CLR,,0.00,WeatherDisplay:10.37,2013-04-12 11:10:00,
2013-04-12 06:15:00,33.1,29.3,28.69,South,180,1.1,0.0,86,0.00,CLR,,0.00,WeatherDisplay:10.37,2013-04-12 11:15:00,
2013-04-12 06:20:00,33.1,29.3,28.70,SE,135,1.1,0.0,86,0.00,CLR,,0.00,WeatherDisplay:10.37,2013-04-12 11:20:00,
2013-04-12 06:25:00,33.3,29.5,28.70,SE,135,1.1,0.0,86,0.00,CLR,,0.00,WeatherDisplay:10.37,2013-04-12 11:25:00,
2013-04-12 06:30:00,33.3,29.5,28.70,SE,135,1.1,0.0,86,0.00,CLR,,0.00,WeatherDisplay:10.37,2013-04-12 11:30:00,
2013-04-12 06:35:00,33.4,29.7,28.70,NE,45,1.1,1.1,86,0.00,CLR,,0.00,WeatherDisplay:10.37,2013-04-12 11:35:00,
2013-04-12 06:40:00,33.6,29.9,28.70,SE,135,3.5,0.0,86,0.00,CLR,,0.00,WeatherDisplay:10.37,2013-04-12 11:40:00,
2013-04-12 06:45:00,33.8,29.8,28.70,NE,45,4.6,0.0,85,0.00,CLR,,0.00,WeatherDisplay:10.37,2013-04-12 11:45:00,
2013-04-12 06:51:00,34.0,29.9,28.70,WSW,248,2.3,0.0,85,0.00,CLR,,0.00,WeatherDisplay:10.37,2013-04-12 11:51:00,
2013-04-12 06:56:00,34.2,30.1,28.70,NW,315,1.1,2.2,85,0.00,CLR,,0.00,WeatherDisplay:10.37,2013-04-12 11:56:00,
2013-04-12 07:01:00,34.2,29.8,28.71,West,270,5.8,5.8,84,0.00,CLR,,0.00,WeatherDisplay:10.37,2013-04-12 12:01:00,
2013-04-12 07:06:00,34.2,29.8,28.71,NE,45,4.6,0.0,84,0.00,CLR,,0.00,WeatherDisplay:10.37,2013-04-12 12:06:00,
2013-04-12 07:12:00,34.3,29.7,28.72,NE,45,8.1,0.0,83,0.00,CLR,,0.00,WeatherDisplay:10.37,2013-04-12 12:12:00,
2013-04-12 07:17:00,34.3,29.7,28.72,SE,135,2.3,0.0,83,0.00,CLR,,0.00,WeatherDisplay:10.37,2013-04-12 12:17:00,
2013-04-12 07:22:00,34.5,29.9,28.72,South,180,1.1,0.0,83,0.00,CLR,,0.00,WeatherDisplay:10.37,2013-04-12 12:22:00,
2013-04-12 07:27:00,34.7,30.1,28.73,SE,135,3.8,3.8,83,0.00,CLR,,0.00,WeatherDisplay:10.37,2013-04-12 12:27:00,
2013-04-12 07:32:00,34.7,29.8,28.73,SE,135,3.5,0.0,82,0.00,CLR,,0.00,WeatherDisplay:10.37,2013-04-12 12:32:00,
2013-04-12 07:37:00,34.9,29.9,28.73,West,270,1.1,0.0,82,0.00,CLR,,0.00,WeatherDisplay:10.37,2013-04-12 12:37:00,
2013-04-12 07:42:00,35.1,30.1,28.73,North,0,1.1,0.0,82,0.00,CLR,,0.00,WeatherDisplay:10.37,2013-04-12 12:42:00,
2013-04-12 07:48:00,35.1,29.8,28.74,SE,135,1.1,0.0,81,0.00,CLR,,0.00,WeatherDisplay:10.37,2013-04-12 12:48:00,
2013-04-12 07:54:00,35.2,30.0,28.74,SW,225,1.1,0.0,81,0.00,CLR,,0.00,WeatherDisplay:10.37,2013-04-12 12:54:00,
2013-04-12 07:59:00,35.2,30.0,28.74,West,270,1.1,0.0,81,0.00,CLR,,0.00,WeatherDisplay:10.37,2013-04-12 12:59:00,
2013-04-12 08:04:00,35.2,29.7,28.74,West,270,2.3,0.0,80,0.00,CLR,,0.00,WeatherDisplay:10.37,2013-04-12 13:04:00,
2013-04-12 08:09:00,35.4,29.9,28.74,West,270,2.3,0.0,80,0.00,CLR,,0.00,WeatherDisplay:10.37,2013-04-12 13:09:00,
2013-04-12 08:14:00,35.4,29.9,28.75,North,0,6.9,0.0,80,0.00,CLR,,0.00,WeatherDisplay:10.37,2013-04-12 13:14:00,
2013-04-12 08:19:00,35.4,29.9,28.75,West,270,5.8,0.0,80,0.00,CLR,,0.00,WeatherDisplay:10.37,2013-04-12 13:19:00,
2013-04-12 08:24:00,35.4,29.9,28.75,SE,135,1.1,0.0,80,0.00,CLR,,0.00,WeatherDisplay:10.37,2013-04-12 13:24:00,
2013-04-12 08:30:00,35.6,30.0,28.75,NW,315,1.1,0.0,80,0.00,CLR,,0.00,WeatherDisplay:10.37,2013-04-12 13:30:00,
2013-04-12 08:35:00,35.6,30.0,28.75,North,0,1.1,0.0,80,0.00,CLR,,0.00,WeatherDisplay:10.37,2013-04-12 13:35:00,
2013-04-12 08:40:00,35.6,30.0,28.75,SE,135,12.7,0.0,80,0.00,CLR,,0.00,WeatherDisplay:10.37,2013-04-12 13:40:00,
2013-04-12 08:45:00,35.8,29.9,28.76,SE,143,2.0,6.0,79,0.00,CLR,,0.00,WeatherDisplay:10.37,2013-04-12 13:45:00,
2013-04-12 08:50:00,36.0,30.1,28.75,SE,125,0.0,6.0,79,0.00,CLR,,0.00,WeatherDisplay:10.37,2013-04-12 13:50:00,
2013-04-12 08:55:00,36.1,30.2,28.76,SSW,211,0.0,6.0,79,0.00,CLR,,0.00,WeatherDisplay:10.37,2013-04-12 13:55:00,
2013-04-12 09:00:00,36.1,30.3,28.76,WSW,252,1.0,8.0,79,0.00,CLR,,0.00,WeatherDisplay:10.37,2013-04-12 14:00:00,
2013-04-12 09:05:00,36.4,30.5,28.75,WSW,257,0.0,6.0,79,0.00,CLR,,0.00,WeatherDisplay:10.37,2013-04-12 14:05:00,
2013-04-12 09:10:00,36.9,30.6,28.75,WSW,248,0.0,6.0,78,0.00,CLR,,0.00,WeatherDisplay:10.37,2013-04-12 14:10:00,
2013-04-12 09:15:00,37.0,30.5,28.76,SSE,155,0.0,6.0,77,0.00,CLR,,0.00,WeatherDisplay:10.37,2013-04-12 14:15:00,
2013-04-12 09:20:00,37.2,30.7,28.76,NW,315,3.5,3.5,77,0.00,CLR,,0.00,WeatherDisplay:10.37,2013-04-12 14:20:00,
2013-04-12 09:25:00,37.8,30.9,28.76,SE,135,3.5,3.5,76,0.00,CLR,,0.00,WeatherDisplay:10.37,2013-04-12 14:25:00,
2013-04-12 09:30:00,38.3,31.4,28.76,North,0,5.8,0.0,76,0.00,CLR,,0.00,WeatherDisplay:10.37,2013-04-12 14:30:00,
2013-04-12 09:35:00,39.0,31.4,28.76,West,270,12.7,0.0,74,0.00,CLR,,0.00,WeatherDisplay:10.37,2013-04-12 14:35:00,
2013-04-12 09:40:00,39.4,31.4,28.76,SE,135,5.8,0.0,73,0.00,CLR,,0.00,WeatherDisplay:10.37,2013-04-12 14:40:00,
2013-04-12 09:45:00,39.4,31.8,28.77,South,180,1.1,0.0,74,0.00,CLR,,0.00,WeatherDisplay:10.37,2013-04-12 14:45:00,
2013-04-12 09:51:00,39.0,31.4,28.76,NE,45,1.1,0.0,74,0.00,CLR,,0.00,WeatherDisplay:10.37,2013-04-12 14:51:00,
2013-04-12 09:56:00,39.4,31.8,28.76,West,270,1.1,0.0,74,0.00,CLR,,0.00,WeatherDisplay:10.37,2013-04-12 14:56:00,
2013-04-12 10:01:00,40.3,32.6,28.77,West,270,2.3,2.3,74,0.00,CLR,,0.00,WeatherDisplay:10.37,2013-04-12 15:01:00,
2013-04-12 10:06:00,41.0,33.0,28.77,SE,135,1.1,0.0,73,0.00,CLR,,0.00,WeatherDisplay:10.37,2013-04-12 15:06:00,
2013-04-12 10:12:00,41.4,32.7,28.77,SW,225,3.5,3.5,71,0.00,CLR,,0.00,WeatherDisplay:10.37,2013-04-12 15:12:00,
2013-04-12 10:17:00,41.9,32.8,28.77,NW,315,4.6,4.6,70,0.00,CLR,,0.00,WeatherDisplay:10.37,2013-04-12 15:17:00,
2013-04-12 10:22:00,41.9,32.8,28.77,West,270,4.6,0.0,70,0.00,CLR,,0.00,WeatherDisplay:10.37,2013-04-12 15:22:00,
2013-04-12 10:27:00,41.5,32.8,28.77,NW,315,1.1,0.0,71,0.00,CLR,,0.00,WeatherDisplay:10.37,2013-04-12 15:27:00,
2013-04-12 10:32:00,41.7,32.7,28.77,South,180,1.1,1.1,70,0.00,CLR,,0.00,WeatherDisplay:10.37,2013-04-12 15:32:00,
2013-04-12 10:38:00,41.9,32.8,28.78,South,180,6.9,6.9,70,0.00,CLR,,0.00,WeatherDisplay:10.37,2013-04-12 15:38:00,
2013-04-12 10:43:00,42.8,33.3,28.78,NE,45,1.1,0.0,69,0.00,CLR,,0.00,WeatherDisplay:10.37,2013-04-12 15:43:00,
2013-04-12 10:48:00,43.5,32.9,28.79,NE,45,10.4,10.4,66,0.00,CLR,,0.00,WeatherDisplay:10.37,2013-04-12 15:48:00,
2013-04-12 10:53:00,44.1,33.4,28.79,North,0,11.5,11.5,66,0.00,CLR,,0.00,WeatherDisplay:10.37,2013-04-12 15:53:00,
2013-04-12 10:58:00,45.0,33.9,28.79,NNE,22,3.5,3.5,65,0.00,CLR,,0.00,WeatherDisplay:10.37,2013-04-12 15:58:00,
2013-04-12 11:03:00,45.0,33.5,28.79,NE,45,8.1,8.1,64,0.00,CLR,,0.00,WeatherDisplay:10.37,2013-04-12 16:03:00,
2013-04-12 11:09:00,45.9,34.0,28.79,NW,315,5.8,0.0,63,0.00,CLR,,0.00,WeatherDisplay:10.37,2013-04-12 16:09:00,
2013-04-12 11:14:00,46.4,34.1,28.79,NE,45,5.8,5.8,62,0.00,CLR,,0.00,WeatherDisplay:10.37,2013-04-12 16:14:00,
2013-04-12 11:19:00,46.8,34.4,28.79,North,0,1.1,0.0,62,0.00,CLR,,0.00,WeatherDisplay:10.37,2013-04-12 16:19:00,
2013-04-12 11:24:00,47.3,34.9,28.79,NE,45,3.5,0.0,62,0.00,CLR,,0.00,WeatherDisplay:10.37,2013-04-12 16:24:00,
2013-04-12 11:29:00,47.7,34.4,28.79,South,180,3.5,3.5,60,0.00,CLR,,0.00,WeatherDisplay:10.37,2013-04-12 16:29:00,
2013-04-12 11:34:00,48.0,35.6,28.79,NW,315,1.1,0.0,62,0.00,CLR,,0.00,WeatherDisplay:10.37,2013-04-12 16:34:00,
2013-04-12 11:39:00,48.6,35.3,28.80,WNW,292,8.1,8.1,60,0.00,CLR,,0.00,WeatherDisplay:10.37,2013-04-12 16:39:00,
2013-04-12 11:45:00,49.3,35.5,28.79,North,0,3.5,0.0,59,0.00,CLR,,0.00,WeatherDisplay:10.37,2013-04-12 16:45:00,
2013-04-12 11:50:00,49.3,34.7,28.79,ENE,71,2.0,14.0,57,0.00,CLR,,0.00,WeatherDisplay:10.37,2013-04-12 16:50:00,
2013-04-12 11:55:00,49.3,35.1,28.79,SE,133,1.0,9.0,58,0.00,CLR,,0.00,WeatherDisplay:10.37,2013-04-12 16:55:00,
2013-04-12 12:00:00,49.6,35.4,28.79,SSW,206,0.0,7.0,58,0.00,CLR,,0.00,WeatherDisplay:10.37,2013-04-12 17:00:00,
2013-04-12 12:05:00,50.4,36.1,28.79,WNW,284,0.0,6.0,58,0.00,CLR,,0.00,WeatherDisplay:10.37,2013-04-12 17:05:00,
2013-04-12 12:10:00,51.1,35.5,28.79,North,355,0.0,10.0,55,0.00,CLR,,0.00,WeatherDisplay:10.37,2013-04-12 17:10:00,
2013-04-12 12:15:00,52.0,35.8,28.80,SE,135,2.3,2.3,54,0.00,CLR,,0.00,WeatherDisplay:10.37,2013-04-12 17:15:00,
2013-04-12 12:20:00,50.9,35.3,28.80,SE,135,2.3,0.0,55,0.00,CLR,,0.00,WeatherDisplay:10.37,2013-04-12 17:20:00,
2013-04-12 12:25:00,50.5,35.4,28.80,SE,135,3.5,0.0,56,0.00,CLR,,0.00,WeatherDisplay:10.37,2013-04-12 17:25:00,
2013-04-12 12:30:00,51.6,36.0,28.80,North,8,3.5,3.5,55,0.00,CLR,,0.00,WeatherDisplay:10.37,2013-04-12 17:30:00,
2013-04-12 12:35:00,51.8,35.7,28.80,North,0,8.1,8.1,54,0.00,CLR,,0.00,WeatherDisplay:10.37,2013-04-12 17:35:00,
2013-04-12 12:41:00,51.8,35.2,28.80,SW,225,3.5,3.5,53,0.00,CLR,,0.00,WeatherDisplay:10.37,2013-04-12 17:41:00,
2013-04-12 12:47:00,52.3,36.2,28.80,South,180,6.9,0.0,54,0.00,CLR,,0.00,WeatherDisplay:10.37,2013-04-12 17:47:00,
2013-04-12 12:52:00,52.5,35.4,28.80,North,0,9.2,9.2,52,0.00,CLR,,0.00,WeatherDisplay:10.37,2013-04-12 17:52:00,
2013-04-12 12:57:00,52.5,34.9,28.80,South,180,9.2,0.0,51,0.00,CLR,,0.00,WeatherDisplay:10.37,2013-04-12 17:57:00,
2013-04-12 13:02:00,52.9,36.7,28.79,WNW,292,5.8,5.8,54,0.00,CLR,,0.00,WeatherDisplay:10.37,2013-04-12 18:02:00,
2013-04-12 13:07:00,53.6,36.9,28.80,South,180,5.8,5.8,53,0.00,CLR,,0.00,WeatherDisplay:10.37,2013-04-12 18:07:00,
2013-04-12 13:12:00,53.2,35.1,28.80,South,180,5.8,0.0,50,0.00,CLR,,0.00,WeatherDisplay:10.37,2013-04-12 18:12:00,
2013-04-12 13:20:00,53.8,35.1,28.80,West,270,8.1,8.1,49,0.00,CLR,,0.00,WeatherDisplay:10.37,2013-04-12 18:20:00,
2013-04-12 13:25:00,53.6,35.9,28.80,SE,135,5.8,0.0,51,0.00,CLR,,0.00,WeatherDisplay:10.37,2013-04-12 18:25:00,
2013-04-12 14:27:00,58.5,37.2,28.79,NE,45,6.9,0.0,45,0.00,CLR,,0.00,WeatherDisplay:10.37,2013-04-12 19:27:00,
2013-04-12 14:28:00,58.3,37.0,28.79,SE,135,3.5,0.0,45,0.00,CLR,,0.00,WeatherDisplay:10.37,2013-04-12 19:28:00,
2013-04-12 14:29:00,58.1,36.9,28.79,South,180,1.1,0.0,45,0.00,CLR,,0.00,WeatherDisplay:10.37,2013-04-12 19:29:00,
2013-04-12 14:34:00,58.3,38.7,28.79,NE,45,3.5,0.0,48,0.00,CLR,,0.00,WeatherDisplay:10.37,2013-04-12 19:34:00,
2013-04-12 14:40:00,59.2,37.8,28.79,SE,135,8.1,8.1,45,0.00,CLR,,0.00,WeatherDisplay:10.37,2013-04-12 19:40:00,
2013-04-12 14:45:00,58.8,37.5,28.79,WNW,292,5.8,5.8,45,0.00,CLR,,0.00,WeatherDisplay:10.37,2013-04-12 19:45:00,
2013-04-12 14:50:00,59.2,38.4,28.79,SW,225,1.1,0.0,46,0.00,CLR,,0.00,WeatherDisplay:10.37,2013-04-12 19:50:00,
2013-04-12 14:55:00,60.0,38.6,28.79,South,172,0.0,6.0,45,0.00,CLR,,0.00,WeatherDisplay:10.37,2013-04-12 19:55:00,
2013-04-12 15:00:00,60.6,37.4,28.79,SE,135,1.1,0.0,42,0.00,CLR,,0.00,WeatherDisplay:10.37,2013-04-12 20:00:00,
2013-04-12 15:05:00,60.4,38.4,28.79,South,180,3.5,0.0,44,0.00,CLR,,0.00,WeatherDisplay:10.37,2013-04-12 20:05:00,
2013-04-12 15:10:00,60.6,38.6,28.78,South,180,5.8,5.8,44,0.00,CLR,,0.00,WeatherDisplay:10.37,2013-04-12 20:10:00,
2013-04-12 15:15:00,61.3,39.2,28.79,North,9,1.1,0.0,44,0.00,CLR,,0.00,WeatherDisplay:10.37,2013-04-12 20:15:00,
2013-04-12 15:20:00,61.3,38.0,28.78,West,270,2.3,0.0,42,0.00,CLR,,0.00,WeatherDisplay:10.37,2013-04-12 20:20:00,
2013-04-12 15:25:00,61.7,38.4,28.78,South,180,4.6,4.6,42,0.00,CLR,,0.00,WeatherDisplay:10.37,2013-04-12 20:25:00,
2013-04-12 15:31:00,60.4,37.8,28.78,SE,135,1.1,0.0,43,0.00,CLR,,0.00,WeatherDisplay:10.37,2013-04-12 20:31:00,
2013-04-12 15:37:00,61.3,38.0,28.78,NE,45,5.8,0.0,42,0.00,CLR,,0.00,WeatherDisplay:10.37,2013-04-12 20:37:00,
2013-04-12 15:42:00,61.0,38.3,28.78,North,0,4.6,4.6,43,0.00,CLR,,0.00,WeatherDisplay:10.37,2013-04-12 20:42:00,
2013-04-12 15:47:00,60.4,37.8,28.79,NW,315,5.8,0.0,43,0.00,CLR,,0.00,WeatherDisplay:10.37,2013-04-12 20:47:00,
2013-04-12 15:52:00,60.4,38.4,28.78,SW,225,6.9,6.9,44,0.00,CLR,,0.00,WeatherDisplay:10.37,2013-04-12 20:52:00,
2013-04-12 15:58:00,61.0,37.1,28.79,SE,135,3.5,4.5,41,0.00,CLR,,0.00,WeatherDisplay:10.37,2013-04-12 20:58:00,
2013-04-12 16:03:00,61.5,39.4,28.78,NE,45,3.5,3.5,44,0.00,CLR,,0.00,WeatherDisplay:10.37,2013-04-12 21:03:00,
2013-04-12 16:08:00,61.7,39.0,28.78,NE,45,5.8,0.0,43,0.00,CLR,,0.00,WeatherDisplay:10.37,2013-04-12 21:08:00,
2013-04-12 16:13:00,61.3,38.0,28.78,South,180,10.4,10.4,42,0.00,CLR,,0.00,WeatherDisplay:10.37,2013-04-12 21:13:00,
2013-04-12 16:18:00,61.2,37.9,28.78,SE,135,3.5,0.0,42,0.00,CLR,,0.00,WeatherDisplay:10.37,2013-04-12 21:18:00,
2013-04-12 16:23:00,62.4,39.0,28.78,NE,45,1.6,0.0,42,0.00,CLR,,0.00,WeatherDisplay:10.37,2013-04-12 21:23:00,
2013-04-12 16:28:00,62.4,38.4,28.78,NE,45,8.1,0.0,41,0.00,CLR,,0.00,WeatherDisplay:10.37,2013-04-12 21:28:00,
2013-04-12 16:33:00,63.0,38.2,28.78,West,270,5.8,5.8,40,0.00,CLR,,0.00,WeatherDisplay:10.37,2013-04-12 21:33:00,
2013-04-12 16:38:00,62.4,38.4,28.77,NE,45,5.8,0.0,41,0.00,CLR,,0.00,WeatherDisplay:10.37,2013-04-12 21:38:00,
2013-04-12 16:43:00,62.8,39.3,28.77,SE,135,3.5,0.0,42,0.00,CLR,,0.00,WeatherDisplay:10.37,2013-04-12 21:43:00,
2013-04-12 16:48:00,62.4,38.4,28.78,SW,225,4.6,0.0,41,0.00,CLR,,0.00,WeatherDisplay:10.37,2013-04-12 21:48:00,
2013-04-12 16:53:00,61.7,37.7,28.78,South,180,2.3,0.0,41,0.00,CLR,,0.00,WeatherDisplay:10.37,2013-04-12 21:53:00,
2013-04-12 16:58:00,62.1,38.7,28.77,South,180,3.5,3.5,42,0.00,CLR,,0.00,WeatherDisplay:10.37,2013-04-12 21:58:00,
2013-04-12 17:03:00,61.7,38.4,28.77,NE,45,2.3,0.0,42,0.00,CLR,,0.00,WeatherDisplay:10.37,2013-04-12 22:03:00,
2013-04-12 17:08:00,61.7,38.4,28.77,SE,135,1.1,0.0,42,0.00,CLR,,0.00,WeatherDisplay:10.37,2013-04-12 22:08:00,
2013-04-12 17:14:00,61.7,38.4,28.78,South,180,1.1,0.0,42,0.00,CLR,,0.00,WeatherDisplay:10.37,2013-04-12 22:14:00,
2013-04-12 17:19:00,61.7,38.4,28.78,NE,45,6.9,6.9,42,0.00,CLR,,0.00,WeatherDisplay:10.37,2013-04-12 22:19:00,
2013-04-12 17:24:00,61.5,38.8,28.78,NW,315,3.5,3.5,43,0.00,CLR,,0.00,WeatherDisplay:10.37,2013-04-12 22:24:00,
2013-04-12 17:29:00,61.5,38.8,28.78,West,270,1.1,0.0,43,0.00,CLR,,0.00,WeatherDisplay:10.37,2013-04-12 22:29:00,
2013-04-12 17:34:00,62.4,39.0,28.78,West,270,3.5,0.0,42,0.00,CLR,,0.00,WeatherDisplay:10.37,2013-04-12 22:34:00,
2013-04-12 17:40:00,60.8,37.5,28.78,NW,315,2.3,0.0,42,0.00,CLR,,0.00,WeatherDisplay:10.37,2013-04-12 22:40:00,
2013-04-12 17:45:00,59.7,37.8,28.78,NE,45,1.1,0.0,44,0.00,CLR,,0.00,WeatherDisplay:10.37,2013-04-12 22:45:00,
2013-04-12 17:50:00,59.4,38.0,28.78,SE,135,3.5,0.0,45,0.00,CLR,,0.00,WeatherDisplay:10.37,2013-04-12 22:50:00,
2013-04-12 17:55:00,59.7,38.3,28.78,SE,135,1.1,0.0,45,0.00,CLR,,0.00,WeatherDisplay:10.37,2013-04-12 22:55:00,
2013-04-12 18:00:00,59.6,37.1,28.78,NNW,337,0.0,3.0,43,0.00,CLR,,0.00,WeatherDisplay:10.37,2013-04-12 23:00:00,
2013-04-12 18:05:00,59.0,37.7,28.78,WNW,295,1.0,6.0,45,0.00,CLR,,0.00,WeatherDisplay:10.37,2013-04-12 23:05:00,
2013-04-12 18:10:00,58.3,38.1,28.77,West,270,1.1,1.1,47,0.00,CLR,,0.00,WeatherDisplay:10.37,2013-04-12 23:10:00,
2013-04-12 18:16:00,57.6,38.0,28.77,West,270,1.1,0.0,48,0.00,CLR,,0.00,WeatherDisplay:10.37,2013-04-12 23:16:00,
2013-04-12 18:21:00,57.2,37.7,28.77,West,270,1.1,0.0,48,0.00,CLR,,0.00,WeatherDisplay:10.37,2013-04-12 23:21:00,
2013-04-12 18:26:00,56.8,37.3,28.78,NE,45,1.1,0.0,48,0.00,CLR,,0.00,WeatherDisplay:10.37,2013-04-12 23:26:00,
2013-04-12 18:31:00,56.5,37.5,28.78,NE,45,1.1,0.0,49,0.00,CLR,,0.00,WeatherDisplay:10.37,2013-04-12 23:31:00,
2013-04-12 18:36:00,56.3,37.4,28.78,SE,135,1.1,0.0,49,0.00,CLR,,0.00,WeatherDisplay:10.37,2013-04-12 23:36:00,
2013-04-12 18:41:00,56.3,37.9,28.78,North,0,1.1,0.0,50,0.00,CLR,,0.00,WeatherDisplay:10.37,2013-04-12 23:41:00,
2013-04-12 18:47:00,55.9,37.0,28.78,NE,45,1.1,1.1,49,0.00,CLR,,0.00,WeatherDisplay:10.37,2013-04-12 23:47:00,
2013-04-12 18:52:00,55.4,37.1,28.78,West,270,1.1,0.0,50,0.00,CLR,,0.00,WeatherDisplay:10.37,2013-04-12 23:52:00,
2013-04-12 18:57:00,55.4,37.1,28.78,SE,135,5.8,0.0,50,0.00,CLR,,0.00,WeatherDisplay:10.37,2013-04-12 23:57:00,
2013-04-12 19:02:00,55.4,37.1,28.78,North,0,2.3,0.0,50,0.00,CLR,,0.00,WeatherDisplay:10.37,2013-04-13 00:02:00,
2013-04-12 19:07:00,55.0,36.7,28.78,SE,135,3.5,0.0,50,0.00,CLR,,0.00,WeatherDisplay:10.37,2013-04-13 00:07:00,
2013-04-12 19:12:00,54.9,36.6,28.78,West,270,2.2,0.0,50,0.00,CLR,,0.00,WeatherDisplay:10.37,2013-04-13 00:12:00,
2013-04-12 19:17:00,54.7,36.9,28.78,South,180,1.1,0.0,51,0.00,CLR,,0.00,WeatherDisplay:10.37,2013-04-13 00:17:00,
2013-04-12 19:22:00,54.7,37.4,28.79,West,270,1.1,0.0,52,0.00,CLR,,0.00,WeatherDisplay:10.37,2013-04-13 00:22:00,
2013-04-12 19:27:00,54.5,37.2,28.78,West,270,2.3,0.0,52,0.00,CLR,,0.00,WeatherDisplay:10.37,2013-04-13 00:27:00,
2013-04-12 19:32:00,54.1,36.9,28.78,West,270,1.1,0.0,52,0.00,CLR,,0.00,WeatherDisplay:10.37,2013-04-13 00:32:00,
2013-04-12 19:37:00,53.8,37.0,28.79,West,270,1.1,0.0,53,0.00,CLR,,0.00,WeatherDisplay:10.37,2013-04-13 00:37:00,
2013-04-12 19:42:00,53.4,36.7,28.79,NE,45,1.1,0.0,53,0.00,CLR,,0.00,WeatherDisplay:10.37,2013-04-13 00:42:00,
2013-04-12 19:47:00,53.1,36.4,28.79,West,270,1.1,0.0,53,0.00,CLR,,0.00,WeatherDisplay:10.37,2013-04-13 00:47:00,
2013-04-12 19:52:00,52.9,36.7,28.80,West,270,1.1,0.0,54,0.00,CLR,,0.00,WeatherDisplay:10.37,2013-04-13 00:52:00,
2013-04-12 19:57:00,52.5,36.8,28.80,West,270,2.3,0.0,55,0.00,CLR,,0.00,WeatherDisplay:10.37,2013-04-13 00:57:00,
2013-04-12 20:03:00,52.0,36.8,28.80,SE,135,1.1,0.0,56,0.00,CLR,,0.00,WeatherDisplay:10.37,2013-04-13 01:03:00,
2013-04-12 20:08:00,51.8,36.6,28.80,West,270,1.1,0.0,56,0.00,CLR,,0.00,WeatherDisplay:10.37,2013-04-13 01:08:00,
2013-04-12 20:13:00,51.4,36.7,28.80,SE,135,1.1,0.0,57,0.00,CLR,,0.00,WeatherDisplay:10.37,2013-04-13 01:13:00,
2013-04-12 20:18:00,51.1,36.4,28.80,SE,135,1.1,0.0,57,0.00,CLR,,0.00,WeatherDisplay:10.37,2013-04-13 01:18:00,
2013-04-12 20:23:00,50.9,36.6,28.81,NE,45,1.1,0.0,58,0.00,CLR,,0.00,WeatherDisplay:10.37,2013-04-13 01:23:00,
2013-04-12 20:28:00,50.5,36.7,28.81,West,270,1.1,0.0,59,0.00,CLR,,0.00,WeatherDisplay:10.37,2013-04-13 01:28:00,
2013-04-12 20:33:00,50.2,36.4,28.81,SW,225,0.0,0.0,59,0.00,CLR,,0.00,WeatherDisplay:10.37,2013-04-13 01:33:00,
2013-04-12 20:38:00,50.0,36.7,28.82,North,0,1.1,0.0,60,0.00,CLR,,0.00,WeatherDisplay:10.37,2013-04-13 01:38:00,
2013-04-12 20:43:00,49.8,36.5,28.82,West,270,1.1,0.0,60,0.00,CLR,,0.00,WeatherDisplay:10.37,2013-04-13 01:43:00,
2013-04-12 20:48:00,49.5,36.1,28.82,SW,225,0.0,0.0,60,0.00,CLR,,0.00,WeatherDisplay:10.37,2013-04-13 01:48:00,
2013-04-12 20:53:00,49.1,35.8,28.82,SW,225,0.0,0.0,60,0.00,CLR,,0.00,WeatherDisplay:10.37,2013-04-13 01:53:00,
2013-04-12 20:58:00,48.6,35.7,28.82,West,270,0.0,0.0,61,0.00,CLR,,0.00,WeatherDisplay:10.37,2013-04-13 01:58:00,
2013-04-12 21:03:00,48.2,35.8,28.82,NNE,12,0.0,0.0,62,0.00,CLR,,0.00,WeatherDisplay:10.37,2013-04-13 02:03:00,
2013-04-12 21:08:00,47.8,35.8,28.82,SW,225,0.0,0.0,63,0.00,CLR,,0.00,WeatherDisplay:10.37,2013-04-13 02:08:00,
2013-04-12 21:13:00,47.7,35.7,28.83,West,270,0.0,0.0,63,0.00,CLR,,0.00,WeatherDisplay:10.37,2013-04-13 02:13:00,
2013-04-12 21:19:00,47.3,35.7,28.82,SW,225,0.0,0.0,64,0.00,CLR,,0.00,WeatherDisplay:10.37,2013-04-13 02:19:00,
2013-04-12 21:24:00,47.1,36.0,28.83,South,180,0.0,0.0,65,0.00,CLR,,0.00,WeatherDisplay:10.37,2013-04-13 02:24:00,
2013-04-12 21:29:00,47.3,36.1,28.83,South,180,0.0,0.0,65,0.00,CLR,,0.00,WeatherDisplay:10.37,2013-04-13 02:29:00,
2013-04-12 21:34:00,47.1,36.0,28.83,West,270,1.1,0.0,65,0.00,CLR,,0.00,WeatherDisplay:10.37,2013-04-13 02:34:00,
2013-04-12 21:39:00,46.9,35.8,28.83,SW,225,0.0,0.0,65,0.00,CLR,,0.00,WeatherDisplay:10.37,2013-04-13 02:39:00,
2013-04-12 21:44:00,46.6,35.8,28.83,SW,225,1.1,0.0,66,0.00,CLR,,0.00,WeatherDisplay:10.37,2013-04-13 02:44:00,
2013-04-12 21:49:00,46.4,35.7,28.84,North,10,0.0,0.0,66,0.00,CLR,,0.00,WeatherDisplay:10.37,2013-04-13 02:49:00,
2013-04-12 21:54:00,46.2,35.5,28.84,SW,225,0.0,0.0,66,0.00,CLR,,0.00,WeatherDisplay:10.37,2013-04-13 02:54:00,
2013-04-12 21:59:00,45.5,34.8,28.84,SW,225,0.0,0.0,66,0.00,CLR,,0.00,WeatherDisplay:10.37,2013-04-13 02:59:00,
2013-04-12 22:04:00,45.5,34.8,28.84,SW,225,0.0,0.0,66,0.00,CLR,,0.00,WeatherDisplay:10.37,2013-04-13 03:04:00,
2013-04-12 22:09:00,44.8,34.5,28.85,SW,225,0.0,0.0,67,0.00,CLR,,0.00,WeatherDisplay:10.37,2013-04-13 03:09:00,
2013-04-12 22:14:00,44.4,34.5,28.84,SW,225,0.0,0.0,68,0.00,CLR,,0.00,WeatherDisplay:10.37,2013-04-13 03:14:00,
2013-04-12 22:19:00,44.1,34.2,28.85,SW,225,0.0,0.0,68,0.00,CLR,,0.00,WeatherDisplay:10.37,2013-04-13 03:19:00,
2013-04-12 22:25:00,43.9,34.4,28.85,SW,225,0.0,0.0,69,0.00,CLR,,0.00,WeatherDisplay:10.37,2013-04-13 03:25:00,
2013-04-12 22:30:00,43.7,34.6,28.85,SW,225,0.0,0.0,70,0.00,CLR,,0.00,WeatherDisplay:10.37,2013-04-13 03:30:00,
2013-04-12 22:35:00,43.3,34.2,28.85,SW,225,0.0,0.0,70,0.00,CLR,,0.00,WeatherDisplay:10.37,2013-04-13 03:35:00,
2013-04-12 22:40:00,43.1,34.0,28.86,SW,225,0.0,0.0,70,0.00,CLR,,0.00,WeatherDisplay:10.37,2013-04-13 03:40:00,
2013-04-12 22:45:00,42.8,34.0,28.86,North,10,0.0,0.0,71,0.00,CLR,,0.00,WeatherDisplay:10.37,2013-04-13 03:45:00,
2013-04-12 22:50:00,42.6,34.2,28.86,North,0,0.0,0.0,72,0.00,CLR,,0.00,WeatherDisplay:10.37,2013-04-13 03:50:00,
2013-04-12 22:55:00,42.4,34.0,28.86,North,0,0.0,0.0,72,0.00,CLR,,0.00,WeatherDisplay:10.37,2013-04-13 03:55:00,
2013-04-12 23:00:00,42.4,34.4,28.86,NW,315,0.0,0.0,73,0.00,CLR,,0.00,WeatherDisplay:10.37,2013-04-13 04:00:00,
2013-04-12 23:01:00,42.4,34.7,28.86,NW,315,0.0,0.0,74,0.00,CLR,,0.00,WeatherDisplay:10.37,2013-04-13 04:01:00,
2013-04-12 23:02:00,42.4,34.7,28.86,NW,315,0.0,0.0,74,0.00,CLR,,0.00,WeatherDisplay:10.37,2013-04-13 04:02:00,
2013-04-12 23:07:00,42.4,34.7,28.86,NW,315,0.0,0.0,74,0.00,CLR,,0.00,WeatherDisplay:10.37,2013-04-13 04:07:00,
2013-04-12 23:12:00,42.6,34.9,28.86,NW,315,1.1,0.0,74,0.00,CLR,,0.00,WeatherDisplay:10.37,2013-04-13 04:12:00,
2013-04-12 23:17:00,42.6,35.2,28.87,SW,225,0.0,0.0,75,0.00,CLR,,0.00,WeatherDisplay:10.37,2013-04-13 04:17:00,
2013-04-12 23:22:00,42.6,35.2,28.87,SW,225,0.0,0.0,75,0.00,CLR,,0.00,WeatherDisplay:10.37,2013-04-13 04:22:00,
2013-04-12 23:28:00,42.6,35.2,28.86,SW,225,0.0,0.0,75,0.00,CLR,,0.00,WeatherDisplay:10.37,2013-04-13 04:28:00,
2013-04-12 23:33:00,42.6,35.2,28.87,SW,225,0.0,0.0,75,0.00,CLR,,0.00,WeatherDisplay:10.37,2013-04-13 04:33:00,
2013-04-12 23:38:00,42.8,35.8,28.87,North,10,0.0,0.0,76,0.00,CLR,,0.00,WeatherDisplay:10.37,2013-04-13 04:38:00,
2013-04-12 23:43:00,42.8,35.8,28.87,SW,225,0.0,0.0,76,0.00,CLR,,0.00,WeatherDisplay:10.37,2013-04-13 04:43:00,
2013-04-12 23:48:00,42.8,36.1,28.87,SW,225,0.0,0.0,77,0.00,CLR,,0.00,WeatherDisplay:10.37,2013-04-13 04:48:00,
2013-04-12 23:53:00,42.8,35.8,28.87,SW,225,0.0,0.0,76,0.00,CLR,,0.00,WeatherDisplay:10.37,2013-04-13 04:53:00,
2013-04-12 23:58:00,42.6,35.6,28.87,SW,225,0.0,0.0,76,0.00,CLR,,0.00,WeatherDisplay:10.37,2013-04-13 04:58:00,